»·PEaware :: N5529T KSAN-54CL

N5529T :: KSAN-54CL

FLIGHT INFORMATION

Flight Status: Arrived
Operator: Privately registered:
United States
More flights under this callsign
Pilot: Marty G. (7817)
Aircraft: PIPER PA-34 SENECA
(PA34)
More flights by this aircraft type
Origin: KSAN San Diego Intl-Lindbergh
United States
Destination: 54CL Lake Riverside Estates
United States
More flights between these airports :: More routes between these airports
Route: +OCN V208 ROBNN
File this flight plan on PilotEdge
Remarks:
Altitude:
(Current/Filed)
7,000ft
Speed:
(Current/Filed)
140kts
Departed: 23-Aug-15 12:03 PM
Arrived: 23-Aug-15 12:35 PM
Distance/Time
Traveled:
51nm/0:32
Distance/Time
To Go:
Arrived

Flight Plot

Page will automatically refresh every two minutes.

Flight plan parsing failed; only flown route is shown


Map Options




Map Legend


Flown Route
Filed Route
Departure Airport
Arrival Airport
Navaid (VOR, NDB)
Fix

Horizontal Profiles

Position Reports

Time Latitude Longitude Heading Altitude Ground
Speed
23-Aug-15 11:49 32.732951 -117.202310 150 17ft 0kts
23-Aug-15 11:56 32.734602 -117.187865 195 17ft 0kts
23-Aug-15 11:57 32.734602 -117.187865 195 17ft 0kts
23-Aug-15 11:58 32.734602 -117.187865 195 17ft 0kts
23-Aug-15 11:59 32.734602 -117.187865 195 17ft 0kts
23-Aug-15 12:00 32.734602 -117.187865 195 17ft 0kts
23-Aug-15 12:01 32.734602 -117.187865 195 17ft 0kts
23-Aug-15 12:02 32.734602 -117.187865 195 17ft 0kts
23-Aug-15 12:03 32.734591 -117.187867 180 17ft 0kts
23-Aug-15 12:04 32.734591 -117.187867 180 17ft 0kts
23-Aug-15 12:05 32.734591 -117.187867 180 17ft 0kts
23-Aug-15 12:06 32.734591 -117.187867 180 17ft 0kts
23-Aug-15 12:07 32.734554 -117.187866 178 17ft 3kts
23-Aug-15 12:08 32.733228 -117.183503 107 17ft 23kts
23-Aug-15 12:09 32.731310 -117.176576 171 17ft 14kts
23-Aug-15 12:10 32.731178 -117.176599 197 17ft 0kts
23-Aug-15 12:11 32.731178 -117.176599 197 17ft 0kts
23-Aug-15 12:12 32.730838 -117.178411 281 17ft 18kts
23-Aug-15 12:13 32.735762 -117.201475 284 616ft 110kts
23-Aug-15 12:14 32.751906 -117.234806 303 1645ft 119kts
23-Aug-15 12:15 32.771393 -117.270528 303 2378ft 139kts
23-Aug-15 12:16 32.792422 -117.308954 303 3348ft 137kts
23-Aug-15 12:17 32.819255 -117.337430 342 4339ft 133kts
23-Aug-15 12:18 32.855168 -117.345054 350 5334ft 129kts
23-Aug-15 12:19 32.895268 -117.352355 349 6001ft 159kts
23-Aug-15 12:20 32.939803 -117.360962 348 6509ft 163kts
23-Aug-15 12:21 32.984726 -117.369056 348 6972ft 165kts
23-Aug-15 12:22 33.031765 -117.378241 347 6990ft 175kts
23-Aug-15 12:23 33.080555 -117.387284 347 6989ft 177kts
23-Aug-15 12:24 33.129407 -117.396695 348 6988ft 178kts
23-Aug-15 12:25 33.178573 -117.405831 347 6989ft 180kts
23-Aug-15 12:26 33.218462 -117.387619 95 6981ft 188kts
23-Aug-15 12:27 33.207777 -117.326441 104 6990ft 188kts
23-Aug-15 12:28 33.196265 -117.266098 104 7271ft 179kts
23-Aug-15 12:29 33.189385 -117.209639 77 8062ft 171kts
23-Aug-15 12:30 33.195174 -117.153592 84 8863ft 169kts
23-Aug-15 12:31 33.206015 -117.096498 59 8995ft 185kts
23-Aug-15 12:32 33.230742 -117.041832 55 8997ft 187kts
23-Aug-15 12:33 33.272181 -117.006092 31 9004ft 184kts
23-Aug-15 12:34 33.314152 -116.970867 32 9008ft 185kts
23-Aug-15 12:35 33.355643 -116.935948 31 8701ft 176kts
23-Aug-15 12:36 33.395333 -116.902489 31 8232ft 173kts
23-Aug-15 12:37 33.433733 -116.870191 32 7800ft 160kts
23-Aug-15 12:38 33.466833 -116.842190 33 6967ft 132kts
23-Aug-15 12:39 33.494815 -116.818657 33 6104ft 115kts
23-Aug-15 12:40 33.520230 -116.797141 34 5293ft 110kts
23-Aug-15 12:41 33.544251 -116.774896 63 4482ft 110kts
23-Aug-15 12:42 33.537490 -116.746048 114 4302ft 126kts
23-Aug-15 12:43 33.509506 -116.749769 248 4705ft 141kts
23-Aug-15 12:44 33.514716 -116.780614 298 3847ft 109kts
23-Aug-15 12:45 33.522585 -116.801504 279 3413ft 0kts
23-Aug-15 12:46 33.522585 -116.801504 279 3413ft 0kts
23-Aug-15 12:47 33.522585 -116.801504 279 3413ft 0kts
23-Aug-15 12:48 33.522585 -116.801504 279 3413ft 0kts
23-Aug-15 12:49 33.522585 -116.801504 279 3413ft 0kts
23-Aug-15 12:50 33.522585 -116.801504 279 3413ft 0kts
23-Aug-15 12:51 33.522585 -116.801504 279 3413ft 0kts
23-Aug-15 12:52 33.522585 -116.801504 279 3413ft 0kts
23-Aug-15 12:53 33.522585 -116.801504 279 3413ft 0kts
23-Aug-15 12:54 33.522585 -116.801504 279 3413ft 0kts
23-Aug-15 12:55 33.522585 -116.801504 279 3413ft 0kts

Navigation Log

Ident Type
Flight plan parsing failed, navigation log unavailable